St Leonards-on-Sea, United Kingdom
Current Conditions -  °F | °C
As of 4:50 PM on Friday 24 Oct 2014 (Local Time) from EGMD Reporting Station
Light Rain Light Rain  
Wind Chill: 16°   Ceiling: 600
Heat Index: 16°   Visibility: 4mi
Dew Point: 16°   Wind: 15mph
Humidity: 100%   Direction: 220°SW
Pressure: 29.94"   Gusts: NA
Location:  50.85°N, 0.56°E
Report Text: EGMD 241550Z 22013KT 6000 -RA BKN006 16/16 Q1014 RERA
Loading
Personal Weather Stations






























Interactive Weather Map
Tropical Storm Tracking
New forecast layout! Learn more

10-Day Weather Forecast

Advertisements
Track Severe Weather on mobile